sensor_id;sensor_type;location;lat;lon;timestamp;temperature;humidity
27164;DHT22;14685;50.618;7.024;2022-10-16T00:01:27;17.90;99.90
27164;DHT22;14685;50.618;7.024;2022-10-16T00:03:54;17.90;99.90
27164;DHT22;14685;50.618;7.024;2022-10-16T00:06:22;17.90;99.90
27164;DHT22;14685;50.618;7.024;2022-10-16T00:08:50;17.90;99.90
27164;DHT22;14685;50.618;7.024;2022-10-16T00:11:19;17.90;99.90
27164;DHT22;14685;50.618;7.024;2022-10-16T00:13:48;17.90;99.90
27164;DHT22;14685;50.618;7.024;2022-10-16T00:16:17;17.90;99.90
27164;DHT22;14685;50.618;7.024;2022-10-16T00:18:44;17.90;99.90
27164;DHT22;14685;50.618;7.024;2022-10-16T00:21:15;17.90;99.90
27164;DHT22;14685;50.618;7.024;2022-10-16T00:23:43;17.90;99.90
27164;DHT22;14685;50.618;7.024;2022-10-16T00:26:14;18.00;99.90
27164;DHT22;14685;50.618;7.024;2022-10-16T00:28:45;18.00;99.90
27164;DHT22;14685;50.618;7.024;2022-10-16T00:31:12;18.00;99.90
27164;DHT22;14685;50.618;7.024;2022-10-16T00:33:40;17.90;99.90
27164;DHT22;14685;50.618;7.024;2022-10-16T00:36:10;17.90;99.90
27164;DHT22;14685;50.618;7.024;2022-10-16T00:38:38;17.90;99.90
27164;DHT22;14685;50.618;7.024;2022-10-16T00:41:06;17.90;99.90
27164;DHT22;14685;50.618;7.024;2022-10-16T00:43:38;17.90;99.90
27164;DHT22;14685;50.618;7.024;2022-10-16T00:48:41;17.90;99.90
27164;DHT22;14685;50.618;7.024;2022-10-16T00:51:10;17.90;99.90
27164;DHT22;14685;50.618;7.024;2022-10-16T00:53:39;17.90;99.90
27164;DHT22;14685;50.618;7.024;2022-10-16T00:56:07;17.90;99.90
27164;DHT22;14685;50.618;7.024;2022-10-16T00:58:34;17.80;99.90
27164;DHT22;14685;50.618;7.024;2022-10-16T01:01:00;17.90;99.90
27164;DHT22;14685;50.618;7.024;2022-10-16T01:03:31;17.90;99.90
27164;DHT22;14685;50.618;7.024;2022-10-16T01:09:20;17.80;99.90
27164;DHT22;14685;50.618;7.024;2022-10-16T01:17:48;17.70;99.90
27164;DHT22;14685;50.618;7.024;2022-10-16T01:20:31;17.70;99.90
27164;DHT22;14685;50.618;7.024;2022-10-16T01:23:27;17.70;99.90
27164;DHT22;14685;50.618;7.024;2022-10-16T01:28:42;17.70;99.90
27164;DHT22;14685;50.618;7.024;2022-10-16T01:31:15;17.70;99.90
27164;DHT22;14685;50.618;7.024;2022-10-16T01:33:51;17.70;99.90
27164;DHT22;14685;50.618;7.024;2022-10-16T01:36:27;17.70;99.90
27164;DHT22;14685;50.618;7.024;2022-10-16T01:39:00;17.60;99.90
27164;DHT22;14685;50.618;7.024;2022-10-16T01:41:33;17.70;99.90
27164;DHT22;14685;50.618;7.024;2022-10-16T01:44:11;17.60;99.90
27164;DHT22;14685;50.618;7.024;2022-10-16T01:46:42;17.60;99.90
27164;DHT22;14685;50.618;7.024;2022-10-16T01:49:10;17.60;99.90
27164;DHT22;14685;50.618;7.024;2022-10-16T01:51:38;17.50;99.90
27164;DHT22;14685;50.618;7.024;2022-10-16T01:54:07;17.60;99.90
27164;DHT22;14685;50.618;7.024;2022-10-16T01:56:35;17.50;99.90
27164;DHT22;14685;50.618;7.024;2022-10-16T01:59:10;17.50;99.90
27164;DHT22;14685;50.618;7.024;2022-10-16T02:01:41;17.50;99.90
27164;DHT22;14685;50.618;7.024;2022-10-16T02:04:17;17.50;99.90
27164;DHT22;14685;50.618;7.024;2022-10-16T02:06:45;17.40;99.90
27164;DHT22;14685;50.618;7.024;2022-10-16T02:09:12;17.30;99.90
27164;DHT22;14685;50.618;7.024;2022-10-16T02:11:38;17.30;99.90
27164;DHT22;14685;50.618;7.024;2022-10-16T02:14:06;17.30;99.90
27164;DHT22;14685;50.618;7.024;2022-10-16T02:16:36;17.30;99.90
27164;DHT22;14685;50.618;7.024;2022-10-16T02:19:04;17.40;99.90
27164;DHT22;14685;50.618;7.024;2022-10-16T02:21:43;17.30;99.90
27164;DHT22;14685;50.618;7.024;2022-10-16T02:24:33;17.20;99.90
27164;DHT22;14685;50.618;7.024;2022-10-16T02:29:40;17.20;99.90
27164;DHT22;14685;50.618;7.024;2022-10-16T02:32:12;17.20;99.90
27164;DHT22;14685;50.618;7.024;2022-10-16T02:34:42;17.20;99.90
27164;DHT22;14685;50.618;7.024;2022-10-16T02:37:09;17.20;99.90
27164;DHT22;14685;50.618;7.024;2022-10-16T02:39:37;17.20;99.90
27164;DHT22;14685;50.618;7.024;2022-10-16T02:42:10;17.20;99.90
27164;DHT22;14685;50.618;7.024;2022-10-16T02:44:37;17.30;99.90
27164;DHT22;14685;50.618;7.024;2022-10-16T02:47:05;17.30;99.90
27164;DHT22;14685;50.618;7.024;2022-10-16T02:49:31;17.40;99.90
27164;DHT22;14685;50.618;7.024;2022-10-16T02:51:58;17.40;99.90
27164;DHT22;14685;50.618;7.024;2022-10-16T02:54:25;17.50;99.90
27164;DHT22;14685;50.618;7.024;2022-10-16T02:56:53;17.50;99.90
27164;DHT22;14685;50.618;7.024;2022-10-16T02:59:20;17.40;99.90
27164;DHT22;14685;50.618;7.024;2022-10-16T03:01:46;17.50;99.90
27164;DHT22;14685;50.618;7.024;2022-10-16T03:04:13;17.40;99.90
27164;DHT22;14685;50.618;7.024;2022-10-16T03:06:40;17.50;99.90
27164;DHT22;14685;50.618;7.024;2022-10-16T03:09:07;17.50;99.90
27164;DHT22;14685;50.618;7.024;2022-10-16T03:11:34;17.50;99.90
27164;DHT22;14685;50.618;7.024;2022-10-16T03:14:02;17.50;99.90
27164;DHT22;14685;50.618;7.024;2022-10-16T03:16:30;17.50;99.90
27164;DHT22;14685;50.618;7.024;2022-10-16T03:18:57;17.50;99.90
27164;DHT22;14685;50.618;7.024;2022-10-16T03:21:23;17.50;99.90
27164;DHT22;14685;50.618;7.024;2022-10-16T03:23:51;17.50;99.90
27164;DHT22;14685;50.618;7.024;2022-10-16T03:26:18;17.40;99.90
27164;DHT22;14685;50.618;7.024;2022-10-16T03:28:45;17.40;99.90
27164;DHT22;14685;50.618;7.024;2022-10-16T03:31:12;17.30;99.90
27164;DHT22;14685;50.618;7.024;2022-10-16T03:33:39;17.30;99.90
27164;DHT22;14685;50.618;7.024;2022-10-16T03:36:06;17.20;99.90
27164;DHT22;14685;50.618;7.024;2022-10-16T03:38:33;17.20;99.90
27164;DHT22;14685;50.618;7.024;2022-10-16T03:41:00;17.20;99.90
27164;DHT22;14685;50.618;7.024;2022-10-16T03:43:27;17.20;99.90
27164;DHT22;14685;50.618;7.024;2022-10-16T03:45:53;17.20;99.90
27164;DHT22;14685;50.618;7.024;2022-10-16T03:48:20;17.10;99.90
27164;DHT22;14685;50.618;7.024;2022-10-16T03:50:47;17.10;99.90
27164;DHT22;14685;50.618;7.024;2022-10-16T03:53:15;17.20;99.90
27164;DHT22;14685;50.618;7.024;2022-10-16T03:55:42;17.10;99.90
27164;DHT22;14685;50.618;7.024;2022-10-16T03:58:10;17.10;99.90
27164;DHT22;14685;50.618;7.024;2022-10-16T04:00:41;17.10;99.90
27164;DHT22;14685;50.618;7.024;2022-10-16T04:03:08;17.10;99.90
27164;DHT22;14685;50.618;7.024;2022-10-16T04:05:34;17.10;99.90
27164;DHT22;14685;50.618;7.024;2022-10-16T04:08:01;17.10;99.90
27164;DHT22;14685;50.618;7.024;2022-10-16T04:10:28;17.10;99.90
27164;DHT22;14685;50.618;7.024;2022-10-16T04:12:58;17.10;99.90
27164;DHT22;14685;50.618;7.024;2022-10-16T04:15:25;17.10;99.90
27164;DHT22;14685;50.618;7.024;2022-10-16T04:17:52;17.00;99.90
27164;DHT22;14685;50.618;7.024;2022-10-16T04:20:19;17.10;99.90
27164;DHT22;14685;50.618;7.024;2022-10-16T04:22:46;17.10;99.90
27164;DHT22;14685;50.618;7.024;2022-10-16T04:25:14;17.20;99.90
27164;DHT22;14685;50.618;7.024;2022-10-16T04:27:43;17.10;99.90
27164;DHT22;14685;50.618;7.024;2022-10-16T04:30:12;17.20;99.90
27164;DHT22;14685;50.618;7.024;2022-10-16T04:32:39;17.20;99.90
27164;DHT22;14685;50.618;7.024;2022-10-16T04:35:07;17.20;99.90
27164;DHT22;14685;50.618;7.024;2022-10-16T04:37:33;17.30;99.90
27164;DHT22;14685;50.618;7.024;2022-10-16T04:40:00;17.30;99.90
27164;DHT22;14685;50.618;7.024;2022-10-16T04:42:27;17.30;99.90
27164;DHT22;14685;50.618;7.024;2022-10-16T04:44:54;17.30;99.90
27164;DHT22;14685;50.618;7.024;2022-10-16T04:47:22;17.30;99.90
27164;DHT22;14685;50.618;7.024;2022-10-16T04:49:49;17.40;99.90
27164;DHT22;14685;50.618;7.024;2022-10-16T04:52:17;17.40;99.90
27164;DHT22;14685;50.618;7.024;2022-10-16T04:54:45;17.40;99.90
27164;DHT22;14685;50.618;7.024;2022-10-16T04:57:12;17.40;99.90
27164;DHT22;14685;50.618;7.024;2022-10-16T04:59:39;17.40;99.90
27164;DHT22;14685;50.618;7.024;2022-10-16T05:02:06;17.50;99.90
27164;DHT22;14685;50.618;7.024;2022-10-16T05:04:32;17.40;99.90
27164;DHT22;14685;50.618;7.024;2022-10-16T05:07:02;17.40;99.90
27164;DHT22;14685;50.618;7.024;2022-10-16T05:09:29;17.50;99.90
27164;DHT22;14685;50.618;7.024;2022-10-16T05:11:56;17.50;99.90
27164;DHT22;14685;50.618;7.024;2022-10-16T05:14:23;17.50;99.90
27164;DHT22;14685;50.618;7.024;2022-10-16T05:16:50;17.50;99.90
27164;DHT22;14685;50.618;7.024;2022-10-16T05:19:17;17.50;99.90
27164;DHT22;14685;50.618;7.024;2022-10-16T05:21:59;17.50;99.90
27164;DHT22;14685;50.618;7.024;2022-10-16T05:24:26;17.50;99.90
27164;DHT22;14685;50.618;7.024;2022-10-16T05:26:52;17.50;99.90
27164;DHT22;14685;50.618;7.024;2022-10-16T05:29:20;17.50;99.90
27164;DHT22;14685;50.618;7.024;2022-10-16T05:31:49;17.50;99.90
27164;DHT22;14685;50.618;7.024;2022-10-16T05:34:16;17.50;99.90
27164;DHT22;14685;50.618;7.024;2022-10-16T05:36:42;17.50;99.90
27164;DHT22;14685;50.618;7.024;2022-10-16T05:39:14;17.50;99.90
27164;DHT22;14685;50.618;7.024;2022-10-16T05:41:41;17.50;99.90
27164;DHT22;14685;50.618;7.024;2022-10-16T05:44:08;17.60;99.90
27164;DHT22;14685;50.618;7.024;2022-10-16T05:46:35;17.60;99.90
27164;DHT22;14685;50.618;7.024;2022-10-16T05:49:03;17.60;99.90
27164;DHT22;14685;50.618;7.024;2022-10-16T05:51:29;17.50;99.90
27164;DHT22;14685;50.618;7.024;2022-10-16T05:53:57;17.50;99.90
27164;DHT22;14685;50.618;7.024;2022-10-16T05:56:25;17.50;99.90
27164;DHT22;14685;50.618;7.024;2022-10-16T05:58:53;17.40;99.90
27164;DHT22;14685;50.618;7.024;2022-10-16T06:01:20;17.40;99.90
27164;DHT22;14685;50.618;7.024;2022-10-16T06:03:51;17.40;99.90
27164;DHT22;14685;50.618;7.024;2022-10-16T06:06:21;17.30;99.90
27164;DHT22;14685;50.618;7.024;2022-10-16T06:08:49;17.30;99.90
27164;DHT22;14685;50.618;7.024;2022-10-16T06:11:22;17.30;99.90
27164;DHT22;14685;50.618;7.024;2022-10-16T06:13:54;17.30;99.90
27164;DHT22;14685;50.618;7.024;2022-10-16T06:16:21;17.30;99.90
27164;DHT22;14685;50.618;7.024;2022-10-16T06:18:50;17.40;99.90
27164;DHT22;14685;50.618;7.024;2022-10-16T06:21:19;17.40;99.90
27164;DHT22;14685;50.618;7.024;2022-10-16T06:23:47;17.50;99.90
27164;DHT22;14685;50.618;7.024;2022-10-16T06:26:23;17.50;99.90
27164;DHT22;14685;50.618;7.024;2022-10-16T06:28:50;17.50;99.90
27164;DHT22;14685;50.618;7.024;2022-10-16T06:31:20;17.50;99.90
27164;DHT22;14685;50.618;7.024;2022-10-16T06:33:50;17.60;99.90
27164;DHT22;14685;50.618;7.024;2022-10-16T06:36:17;17.60;99.90
27164;DHT22;14685;50.618;7.024;2022-10-16T06:38:44;17.60;99.90
27164;DHT22;14685;50.618;7.024;2022-10-16T06:41:14;17.60;99.90
27164;DHT22;14685;50.618;7.024;2022-10-16T06:43:41;17.70;99.90
27164;DHT22;14685;50.618;7.024;2022-10-16T06:46:09;17.70;99.90
27164;DHT22;14685;50.618;7.024;2022-10-16T06:48:37;17.70;99.90
27164;DHT22;14685;50.618;7.024;2022-10-16T06:51:12;17.70;99.90
27164;DHT22;14685;50.618;7.024;2022-10-16T06:53:42;17.80;99.90
27164;DHT22;14685;50.618;7.024;2022-10-16T06:56:28;17.80;99.90
27164;DHT22;14685;50.618;7.024;2022-10-16T06:58:58;17.80;99.90
27164;DHT22;14685;50.618;7.024;2022-10-16T07:01:26;17.80;99.90
27164;DHT22;14685;50.618;7.024;2022-10-16T07:03:53;17.80;99.90
27164;DHT22;14685;50.618;7.024;2022-10-16T07:06:21;17.90;99.90
27164;DHT22;14685;50.618;7.024;2022-10-16T07:08:49;17.90;99.90
27164;DHT22;14685;50.618;7.024;2022-10-16T07:11:21;17.90;99.90
27164;DHT22;14685;50.618;7.024;2022-10-16T07:13:49;18.00;99.90
27164;DHT22;14685;50.618;7.024;2022-10-16T07:16:24;18.00;99.90
27164;DHT22;14685;50.618;7.024;2022-10-16T07:18:57;18.00;99.90
27164;DHT22;14685;50.618;7.024;2022-10-16T07:21:28;18.00;99.90
27164;DHT22;14685;50.618;7.024;2022-10-16T07:23:57;18.00;99.90
27164;DHT22;14685;50.618;7.024;2022-10-16T07:26:25;18.00;99.90
27164;DHT22;14685;50.618;7.024;2022-10-16T07:28:52;18.10;99.90
27164;DHT22;14685;50.618;7.024;2022-10-16T07:31:20;18.10;99.90
27164;DHT22;14685;50.618;7.024;2022-10-16T07:33:49;18.10;99.90
27164;DHT22;14685;50.618;7.024;2022-10-16T07:36:17;18.10;99.90
27164;DHT22;14685;50.618;7.024;2022-10-16T07:38:45;18.10;99.90
27164;DHT22;14685;50.618;7.024;2022-10-16T07:41:14;18.20;99.90
27164;DHT22;14685;50.618;7.024;2022-10-16T07:43:52;18.20;99.90
27164;DHT22;14685;50.618;7.024;2022-10-16T07:46:20;18.30;99.90
27164;DHT22;14685;50.618;7.024;2022-10-16T07:48:47;18.30;99.90
27164;DHT22;14685;50.618;7.024;2022-10-16T07:51:17;18.30;99.90
27164;DHT22;14685;50.618;7.024;2022-10-16T07:53:45;18.30;99.90
27164;DHT22;14685;50.618;7.024;2022-10-16T07:56:12;18.30;99.90
27164;DHT22;14685;50.618;7.024;2022-10-16T07:58:39;18.40;99.90
27164;DHT22;14685;50.618;7.024;2022-10-16T08:01:08;18.40;99.90
27164;DHT22;14685;50.618;7.024;2022-10-16T08:03:35;18.40;99.90
27164;DHT22;14685;50.618;7.024;2022-10-16T08:06:03;18.50;99.90
27164;DHT22;14685;50.618;7.024;2022-10-16T08:08:30;18.50;99.90
27164;DHT22;14685;50.618;7.024;2022-10-16T08:10:57;18.50;99.90
27164;DHT22;14685;50.618;7.024;2022-10-16T08:13:24;18.50;99.90
27164;DHT22;14685;50.618;7.024;2022-10-16T08:15:55;18.60;99.90
27164;DHT22;14685;50.618;7.024;2022-10-16T08:18:22;18.60;99.90
27164;DHT22;14685;50.618;7.024;2022-10-16T08:20:58;18.60;99.90
27164;DHT22;14685;50.618;7.024;2022-10-16T08:23:28;18.60;99.90
27164;DHT22;14685;50.618;7.024;2022-10-16T08:25:56;18.60;99.90
27164;DHT22;14685;50.618;7.024;2022-10-16T08:28:23;18.60;99.90
27164;DHT22;14685;50.618;7.024;2022-10-16T08:30:50;18.70;99.90
27164;DHT22;14685;50.618;7.024;2022-10-16T08:33:17;18.60;99.90
27164;DHT22;14685;50.618;7.024;2022-10-16T08:35:50;18.70;99.90
27164;DHT22;14685;50.618;7.024;2022-10-16T08:38:17;18.70;99.90
27164;DHT22;14685;50.618;7.024;2022-10-16T08:40:44;18.80;99.90
27164;DHT22;14685;50.618;7.024;2022-10-16T08:43:34;18.80;99.90
27164;DHT22;14685;50.618;7.024;2022-10-16T08:46:21;18.80;99.90
27164;DHT22;14685;50.618;7.024;2022-10-16T08:48:55;18.80;99.90
27164;DHT22;14685;50.618;7.024;2022-10-16T08:51:30;18.80;99.90
27164;DHT22;14685;50.618;7.024;2022-10-16T08:54:14;18.90;99.90
27164;DHT22;14685;50.618;7.024;2022-10-16T08:56:43;18.80;99.90
27164;DHT22;14685;50.618;7.024;2022-10-16T08:59:10;18.90;99.90
27164;DHT22;14685;50.618;7.024;2022-10-16T09:01:44;18.90;99.90
27164;DHT22;14685;50.618;7.024;2022-10-16T09:04:38;18.90;99.90
27164;DHT22;14685;50.618;7.024;2022-10-16T09:07:22;18.90;99.90
27164;DHT22;14685;50.618;7.024;2022-10-16T09:10:13;18.90;99.90
27164;DHT22;14685;50.618;7.024;2022-10-16T09:15:45;18.90;99.90
27164;DHT22;14685;50.618;7.024;2022-10-16T09:21:25;19.00;99.90
27164;DHT22;14685;50.618;7.024;2022-10-16T09:23:53;19.00;99.90
27164;DHT22;14685;50.618;7.024;2022-10-16T09:26:20;19.10;99.90
27164;DHT22;14685;50.618;7.024;2022-10-16T09:28:52;19.20;99.90
27164;DHT22;14685;50.618;7.024;2022-10-16T09:31:21;19.20;99.90
27164;DHT22;14685;50.618;7.024;2022-10-16T09:34:00;19.30;99.90
27164;DHT22;14685;50.618;7.024;2022-10-16T09:36:36;19.30;99.90
27164;DHT22;14685;50.618;7.024;2022-10-16T09:39:10;19.40;99.90
27164;DHT22;14685;50.618;7.024;2022-10-16T09:41:41;19.50;99.90
27164;DHT22;14685;50.618;7.024;2022-10-16T09:44:29;19.60;99.90
27164;DHT22;14685;50.618;7.024;2022-10-16T09:47:21;19.70;99.90
27164;DHT22;14685;50.618;7.024;2022-10-16T09:49:59;19.70;99.90
27164;DHT22;14685;50.618;7.024;2022-10-16T09:52:29;19.90;99.90
27164;DHT22;14685;50.618;7.024;2022-10-16T09:55:01;20.00;99.90
27164;DHT22;14685;50.618;7.024;2022-10-16T09:57:28;20.20;99.90
27164;DHT22;14685;50.618;7.024;2022-10-16T09:59:57;20.20;99.90
27164;DHT22;14685;50.618;7.024;2022-10-16T10:02:34;20.30;99.90
27164;DHT22;14685;50.618;7.024;2022-10-16T10:05:04;20.50;99.90
27164;DHT22;14685;50.618;7.024;2022-10-16T10:07:37;20.50;99.90
27164;DHT22;14685;50.618;7.024;2022-10-16T10:10:06;20.50;99.90
27164;DHT22;14685;50.618;7.024;2022-10-16T10:12:46;20.50;99.90
27164;DHT22;14685;50.618;7.024;2022-10-16T10:15:14;20.50;99.90
27164;DHT22;14685;50.618;7.024;2022-10-16T10:17:58;20.50;99.90
27164;DHT22;14685;50.618;7.024;2022-10-16T10:20:32;20.50;99.90
27164;DHT22;14685;50.618;7.024;2022-10-16T10:23:35;20.60;99.90
27164;DHT22;14685;50.618;7.024;2022-10-16T10:26:26;20.60;99.90
27164;DHT22;14685;50.618;7.024;2022-10-16T10:35:04;20.70;99.90
27164;DHT22;14685;50.618;7.024;2022-10-16T10:37:51;20.70;99.90
27164;DHT22;14685;50.618;7.024;2022-10-16T10:51:54;21.00;99.90
27164;DHT22;14685;50.618;7.024;2022-10-16T10:54:25;21.00;99.90
27164;DHT22;14685;50.618;7.024;2022-10-16T11:02:40;21.00;99.90
27164;DHT22;14685;50.618;7.024;2022-10-16T11:07:54;21.20;99.90
27164;DHT22;14685;50.618;7.024;2022-10-16T11:10:28;21.20;99.90
27164;DHT22;14685;50.618;7.024;2022-10-16T11:13:16;21.20;99.90
27164;DHT22;14685;50.618;7.024;2022-10-16T11:15:48;21.20;99.90
27164;DHT22;14685;50.618;7.024;2022-10-16T11:18:24;21.20;99.90
27164;DHT22;14685;50.618;7.024;2022-10-16T11:21:13;21.20;99.90
27164;DHT22;14685;50.618;7.024;2022-10-16T11:24:08;21.20;99.90
27164;DHT22;14685;50.618;7.024;2022-10-16T11:26:41;21.30;99.90
27164;DHT22;14685;50.618;7.024;2022-10-16T11:29:16;21.20;99.90
27164;DHT22;14685;50.618;7.024;2022-10-16T11:31:50;21.20;99.90
27164;DHT22;14685;50.618;7.024;2022-10-16T11:34:31;21.20;99.90
27164;DHT22;14685;50.618;7.024;2022-10-16T11:37:05;21.30;99.90
27164;DHT22;14685;50.618;7.024;2022-10-16T11:39:35;21.30;99.90
27164;DHT22;14685;50.618;7.024;2022-10-16T11:47:40;21.40;99.90
27164;DHT22;14685;50.618;7.024;2022-10-16T11:50:50;21.40;99.90
27164;DHT22;14685;50.618;7.024;2022-10-16T11:55:56;21.40;99.90
27164;DHT22;14685;50.618;7.024;2022-10-16T12:06:31;21.50;99.90
27164;DHT22;14685;50.618;7.024;2022-10-16T12:09:00;21.50;99.90
27164;DHT22;14685;50.618;7.024;2022-10-16T12:17:02;21.70;99.90
27164;DHT22;14685;50.618;7.024;2022-10-16T12:19:30;21.70;99.90
27164;DHT22;14685;50.618;7.024;2022-10-16T12:21:59;21.70;99.90
27164;DHT22;14685;50.618;7.024;2022-10-16T12:24:38;21.70;99.90
27164;DHT22;14685;50.618;7.024;2022-10-16T12:27:20;21.60;99.90
27164;DHT22;14685;50.618;7.024;2022-10-16T12:29:53;21.60;99.90
27164;DHT22;14685;50.618;7.024;2022-10-16T12:35:28;21.60;99.90
27164;DHT22;14685;50.618;7.024;2022-10-16T12:38:18;21.60;99.90
27164;DHT22;14685;50.618;7.024;2022-10-16T12:41:00;21.60;99.90
27164;DHT22;14685;50.618;7.024;2022-10-16T12:48:36;21.60;99.90
27164;DHT22;14685;50.618;7.024;2022-10-16T12:51:34;21.70;99.90
27164;DHT22;14685;50.618;7.024;2022-10-16T12:54:15;21.80;99.90
27164;DHT22;14685;50.618;7.024;2022-10-16T12:56:58;21.90;99.90
27164;DHT22;14685;50.618;7.024;2022-10-16T12:59:57;22.00;99.90
27164;DHT22;14685;50.618;7.024;2022-10-16T13:05:32;22.10;99.90
27164;DHT22;14685;50.618;7.024;2022-10-16T13:17:12;22.10;99.90
27164;DHT22;14685;50.618;7.024;2022-10-16T13:19:46;22.00;99.90
27164;DHT22;14685;50.618;7.024;2022-10-16T13:22:32;22.00;99.90
27164;DHT22;14685;50.618;7.024;2022-10-16T13:25:27;22.00;99.90
27164;DHT22;14685;50.618;7.024;2022-10-16T13:28:00;22.00;99.90
27164;DHT22;14685;50.618;7.024;2022-10-16T13:30:29;21.90;99.90
27164;DHT22;14685;50.618;7.024;2022-10-16T13:33:02;21.90;99.90
27164;DHT22;14685;50.618;7.024;2022-10-16T13:35:31;21.90;99.90
27164;DHT22;14685;50.618;7.024;2022-10-16T13:38:20;21.90;99.90
27164;DHT22;14685;50.618;7.024;2022-10-16T13:41:01;21.90;99.90
27164;DHT22;14685;50.618;7.024;2022-10-16T13:46:06;21.90;99.90
27164;DHT22;14685;50.618;7.024;2022-10-16T13:48:34;22.00;99.90
27164;DHT22;14685;50.618;7.024;2022-10-16T13:51:10;22.00;99.90
27164;DHT22;14685;50.618;7.024;2022-10-16T13:53:38;22.00;99.90
27164;DHT22;14685;50.618;7.024;2022-10-16T13:56:07;22.00;99.90
27164;DHT22;14685;50.618;7.024;2022-10-16T13:58:36;21.90;99.90
27164;DHT22;14685;50.618;7.024;2022-10-16T14:01:06;21.90;99.90
27164;DHT22;14685;50.618;7.024;2022-10-16T14:03:40;21.90;99.90
27164;DHT22;14685;50.618;7.024;2022-10-16T14:06:15;21.90;99.90
27164;DHT22;14685;50.618;7.024;2022-10-16T14:08:45;21.90;99.90
27164;DHT22;14685;50.618;7.024;2022-10-16T14:11:21;21.90;99.90
27164;DHT22;14685;50.618;7.024;2022-10-16T14:13:50;21.90;99.90
27164;DHT22;14685;50.618;7.024;2022-10-16T14:16:21;21.80;99.90
27164;DHT22;14685;50.618;7.024;2022-10-16T14:18:57;21.70;99.90
27164;DHT22;14685;50.618;7.024;2022-10-16T14:21:28;21.70;99.90
27164;DHT22;14685;50.618;7.024;2022-10-16T14:23:56;21.60;99.90
27164;DHT22;14685;50.618;7.024;2022-10-16T14:26:27;21.70;99.90
27164;DHT22;14685;50.618;7.024;2022-10-16T14:29:13;21.70;99.90
27164;DHT22;14685;50.618;7.024;2022-10-16T14:31:40;21.60;99.90
27164;DHT22;14685;50.618;7.024;2022-10-16T14:37:41;21.60;99.90
27164;DHT22;14685;50.618;7.024;2022-10-16T14:39:54;21.60;99.90
27164;DHT22;14685;50.618;7.024;2022-10-16T14:42:23;21.60;99.90
27164;DHT22;14685;50.618;7.024;2022-10-16T14:44:53;21.60;99.90
27164;DHT22;14685;50.618;7.024;2022-10-16T14:47:25;21.60;99.90
27164;DHT22;14685;50.618;7.024;2022-10-16T14:49:54;21.60;99.90
27164;DHT22;14685;50.618;7.024;2022-10-16T14:52:23;21.60;99.90
27164;DHT22;14685;50.618;7.024;2022-10-16T14:54:50;21.70;99.90
27164;DHT22;14685;50.618;7.024;2022-10-16T14:57:19;21.70;99.90
27164;DHT22;14685;50.618;7.024;2022-10-16T14:59:47;21.70;99.90
27164;DHT22;14685;50.618;7.024;2022-10-16T15:04:49;21.80;99.90
27164;DHT22;14685;50.618;7.024;2022-10-16T15:07:16;21.80;99.90
27164;DHT22;14685;50.618;7.024;2022-10-16T15:09:43;21.80;99.90
27164;DHT22;14685;50.618;7.024;2022-10-16T15:12:15;21.80;99.90
27164;DHT22;14685;50.618;7.024;2022-10-16T15:14:43;21.80;99.90
27164;DHT22;14685;50.618;7.024;2022-10-16T15:17:10;21.80;99.90
27164;DHT22;14685;50.618;7.024;2022-10-16T15:19:38;21.80;99.90
27164;DHT22;14685;50.618;7.024;2022-10-16T15:22:04;21.80;99.90
27164;DHT22;14685;50.618;7.024;2022-10-16T15:24:32;21.80;99.90
27164;DHT22;14685;50.618;7.024;2022-10-16T15:26:59;21.80;99.90
27164;DHT22;14685;50.618;7.024;2022-10-16T15:29:26;21.80;99.90
27164;DHT22;14685;50.618;7.024;2022-10-16T15:31:53;21.80;99.90
27164;DHT22;14685;50.618;7.024;2022-10-16T15:34:19;21.80;99.90
27164;DHT22;14685;50.618;7.024;2022-10-16T15:36:46;21.80;99.90
27164;DHT22;14685;50.618;7.024;2022-10-16T15:39:15;21.70;99.90
27164;DHT22;14685;50.618;7.024;2022-10-16T15:41:44;21.80;99.90
27164;DHT22;14685;50.618;7.024;2022-10-16T15:44:11;21.70;99.90
27164;DHT22;14685;50.618;7.024;2022-10-16T15:46:37;21.70;99.90
27164;DHT22;14685;50.618;7.024;2022-10-16T15:49:04;21.70;99.90
27164;DHT22;14685;50.618;7.024;2022-10-16T15:51:33;21.70;99.90
27164;DHT22;14685;50.618;7.024;2022-10-16T15:54:00;21.70;99.90
27164;DHT22;14685;50.618;7.024;2022-10-16T15:56:28;21.60;99.90
27164;DHT22;14685;50.618;7.024;2022-10-16T15:58:55;21.60;99.90
27164;DHT22;14685;50.618;7.024;2022-10-16T16:01:24;21.60;99.90
27164;DHT22;14685;50.618;7.024;2022-10-16T16:03:54;21.60;99.90
27164;DHT22;14685;50.618;7.024;2022-10-16T16:06:22;21.60;99.90
27164;DHT22;14685;50.618;7.024;2022-10-16T16:08:51;21.60;99.90
27164;DHT22;14685;50.618;7.024;2022-10-16T16:11:19;21.60;99.90
27164;DHT22;14685;50.618;7.024;2022-10-16T16:13:47;21.60;99.90
27164;DHT22;14685;50.618;7.024;2022-10-16T16:16:16;21.60;99.90
27164;DHT22;14685;50.618;7.024;2022-10-16T16:18:43;21.70;99.90
27164;DHT22;14685;50.618;7.024;2022-10-16T16:21:12;21.60;99.90
27164;DHT22;14685;50.618;7.024;2022-10-16T16:23:39;21.60;99.90
27164;DHT22;14685;50.618;7.024;2022-10-16T16:26:23;21.60;99.90
27164;DHT22;14685;50.618;7.024;2022-10-16T16:28:56;21.60;99.90
27164;DHT22;14685;50.618;7.024;2022-10-16T16:31:25;21.60;99.90
27164;DHT22;14685;50.618;7.024;2022-10-16T16:33:52;21.60;99.90
27164;DHT22;14685;50.618;7.024;2022-10-16T16:36:19;21.60;99.90
27164;DHT22;14685;50.618;7.024;2022-10-16T16:38:46;21.60;99.90
27164;DHT22;14685;50.618;7.024;2022-10-16T16:41:20;21.60;99.90
27164;DHT22;14685;50.618;7.024;2022-10-16T16:43:47;21.60;99.90
27164;DHT22;14685;50.618;7.024;2022-10-16T16:46:15;21.50;99.90
27164;DHT22;14685;50.618;7.024;2022-10-16T16:48:42;21.50;99.90
27164;DHT22;14685;50.618;7.024;2022-10-16T16:51:12;21.50;99.90
27164;DHT22;14685;50.618;7.024;2022-10-16T16:53:43;21.50;99.90
27164;DHT22;14685;50.618;7.024;2022-10-16T16:56:10;21.50;99.90
27164;DHT22;14685;50.618;7.024;2022-10-16T16:58:37;21.50;99.90
27164;DHT22;14685;50.618;7.024;2022-10-16T17:01:06;21.40;99.90
27164;DHT22;14685;50.618;7.024;2022-10-16T17:03:50;21.40;99.90
27164;DHT22;14685;50.618;7.024;2022-10-16T17:06:24;21.30;99.90
27164;DHT22;14685;50.618;7.024;2022-10-16T17:08:51;21.30;99.90
27164;DHT22;14685;50.618;7.024;2022-10-16T17:11:23;21.20;99.90
27164;DHT22;14685;50.618;7.024;2022-10-16T17:13:51;21.20;99.90
27164;DHT22;14685;50.618;7.024;2022-10-16T17:16:28;21.20;99.90
27164;DHT22;14685;50.618;7.024;2022-10-16T17:18:58;21.20;99.90
27164;DHT22;14685;50.618;7.024;2022-10-16T17:21:25;21.10;99.90
27164;DHT22;14685;50.618;7.024;2022-10-16T17:23:53;21.10;99.90
27164;DHT22;14685;50.618;7.024;2022-10-16T17:26:20;21.10;99.90
27164;DHT22;14685;50.618;7.024;2022-10-16T17:28:51;21.10;99.90
27164;DHT22;14685;50.618;7.024;2022-10-16T17:31:21;21.00;99.90
27164;DHT22;14685;50.618;7.024;2022-10-16T17:33:48;21.00;99.90